sensor_id;sensor_type;location;lat;lon;timestamp;P1;durP1;ratioP1;P2;durP2;ratioP2
66085;SDS011;52868;49.758;9.586;2023-03-01T00:02:06;13.57;;;4.70;;
66085;SDS011;52868;49.758;9.586;2023-03-01T00:04:31;11.48;;;4.70;;
66085;SDS011;52868;49.758;9.586;2023-03-01T00:06:57;12.30;;;4.80;;
66085;SDS011;52868;49.758;9.586;2023-03-01T00:09:23;9.63;;;4.25;;
66085;SDS011;52868;49.758;9.586;2023-03-01T00:11:48;11.68;;;4.50;;
66085;SDS011;52868;49.758;9.586;2023-03-01T00:14:15;11.65;;;4.68;;
66085;SDS011;52868;49.758;9.586;2023-03-01T00:16:42;15.98;;;3.80;;
66085;SDS011;52868;49.758;9.586;2023-03-01T00:19:13;10.73;;;4.25;;
66085;SDS011;52868;49.758;9.586;2023-03-01T00:21:42;10.93;;;4.18;;
66085;SDS011;52868;49.758;9.586;2023-03-01T00:24:11;13.05;;;4.68;;
66085;SDS011;52868;49.758;9.586;2023-03-01T00:26:37;11.00;;;4.40;;
66085;SDS011;52868;49.758;9.586;2023-03-01T00:29:03;11.35;;;5.13;;
66085;SDS011;52868;49.758;9.586;2023-03-01T00:31:29;16.48;;;4.95;;
66085;SDS011;52868;49.758;9.586;2023-03-01T00:33:57;11.60;;;4.85;;
66085;SDS011;52868;49.758;9.586;2023-03-01T00:36:29;10.07;;;4.07;;
66085;SDS011;52868;49.758;9.586;2023-03-01T00:38:59;10.57;;;4.28;;
66085;SDS011;52868;49.758;9.586;2023-03-01T00:41:25;14.15;;;5.03;;
66085;SDS011;52868;49.758;9.586;2023-03-01T00:43:52;12.43;;;4.50;;
66085;SDS011;52868;49.758;9.586;2023-03-01T00:46:19;13.48;;;5.32;;
66085;SDS011;52868;49.758;9.586;2023-03-01T00:48:46;15.07;;;5.40;;
66085;SDS011;52868;49.758;9.586;2023-03-01T00:53:43;11.52;;;4.72;;
66085;SDS011;52868;49.758;9.586;2023-03-01T00:56:09;20.88;;;6.43;;
66085;SDS011;52868;49.758;9.586;2023-03-01T00:58:36;14.82;;;5.13;;
66085;SDS011;52868;49.758;9.586;2023-03-01T01:01:09;11.90;;;4.93;;
66085;SDS011;52868;49.758;9.586;2023-03-01T01:03:42;16.55;;;4.63;;
66085;SDS011;52868;49.758;9.586;2023-03-01T01:06:16;15.90;;;4.95;;
66085;SDS011;52868;49.758;9.586;2023-03-01T01:08:46;13.23;;;5.35;;
66085;SDS011;52868;49.758;9.586;2023-03-01T01:11:12;12.52;;;4.72;;
66085;SDS011;52868;49.758;9.586;2023-03-01T01:13:38;10.00;;;4.20;;
66085;SDS011;52868;49.758;9.586;2023-03-01T01:16:04;13.77;;;5.03;;
66085;SDS011;52868;49.758;9.586;2023-03-01T01:18:31;12.75;;;4.22;;
66085;SDS011;52868;49.758;9.586;2023-03-01T01:20:57;12.23;;;4.68;;
66085;SDS011;52868;49.758;9.586;2023-03-01T01:23:22;11.30;;;5.25;;
66085;SDS011;52868;49.758;9.586;2023-03-01T01:25:48;11.07;;;4.60;;
66085;SDS011;52868;49.758;9.586;2023-03-01T01:28:13;8.23;;;4.30;;
66085;SDS011;52868;49.758;9.586;2023-03-01T01:30:39;12.75;;;4.47;;
66085;SDS011;52868;49.758;9.586;2023-03-01T01:33:05;14.43;;;5.57;;
66085;SDS011;52868;49.758;9.586;2023-03-01T01:35:30;9.55;;;4.25;;
66085;SDS011;52868;49.758;9.586;2023-03-01T01:37:56;9.43;;;4.03;;
66085;SDS011;52868;49.758;9.586;2023-03-01T01:40:21;11.07;;;4.65;;
66085;SDS011;52868;49.758;9.586;2023-03-01T01:42:47;10.50;;;4.40;;
66085;SDS011;52868;49.758;9.586;2023-03-01T01:45:32;9.57;;;4.13;;
66085;SDS011;52868;49.758;9.586;2023-03-01T01:48:04;12.05;;;4.35;;
66085;SDS011;52868;49.758;9.586;2023-03-01T01:50:38;8.98;;;3.92;;
66085;SDS011;52868;49.758;9.586;2023-03-01T01:53:09;13.02;;;4.97;;
66085;SDS011;52868;49.758;9.586;2023-03-01T01:55:44;11.75;;;5.03;;
66085;SDS011;52868;49.758;9.586;2023-03-01T01:58:13;12.60;;;4.43;;
66085;SDS011;52868;49.758;9.586;2023-03-01T02:00:42;11.48;;;4.47;;
66085;SDS011;52868;49.758;9.586;2023-03-01T02:03:25;8.93;;;4.25;;
66085;SDS011;52868;49.758;9.586;2023-03-01T02:06:06;12.93;;;4.80;;
66085;SDS011;52868;49.758;9.586;2023-03-01T02:09:00;14.68;;;4.95;;
66085;SDS011;52868;49.758;9.586;2023-03-01T02:11:30;12.35;;;4.20;;
66085;SDS011;52868;49.758;9.586;2023-03-01T02:13:57;12.95;;;4.78;;
66085;SDS011;52868;49.758;9.586;2023-03-01T02:16:23;12.63;;;4.95;;
66085;SDS011;52868;49.758;9.586;2023-03-01T02:18:50;11.07;;;4.90;;
66085;SDS011;52868;49.758;9.586;2023-03-01T02:23:54;14.63;;;4.53;;
66085;SDS011;52868;49.758;9.586;2023-03-01T02:29:21;14.65;;;4.57;;
66085;SDS011;52868;49.758;9.586;2023-03-01T02:31:47;9.30;;;4.30;;
66085;SDS011;52868;49.758;9.586;2023-03-01T02:34:20;13.70;;;5.37;;
66085;SDS011;52868;49.758;9.586;2023-03-01T02:36:51;11.55;;;4.50;;
66085;SDS011;52868;49.758;9.586;2023-03-01T02:39:31;12.32;;;4.75;;
66085;SDS011;52868;49.758;9.586;2023-03-01T02:42:02;14.20;;;4.70;;
66085;SDS011;52868;49.758;9.586;2023-03-01T02:44:29;9.25;;;4.25;;
66085;SDS011;52868;49.758;9.586;2023-03-01T02:46:55;10.85;;;5.03;;
66085;SDS011;52868;49.758;9.586;2023-03-01T02:49:26;10.23;;;5.15;;
66085;SDS011;52868;49.758;9.586;2023-03-01T02:52:07;10.85;;;5.15;;
66085;SDS011;52868;49.758;9.586;2023-03-01T02:57:26;10.40;;;4.03;;
66085;SDS011;52868;49.758;9.586;2023-03-01T02:59:54;11.40;;;4.95;;
66085;SDS011;52868;49.758;9.586;2023-03-01T03:02:25;13.60;;;5.45;;
66085;SDS011;52868;49.758;9.586;2023-03-01T03:05:10;12.20;;;4.68;;
66085;SDS011;52868;49.758;9.586;2023-03-01T03:07:39;10.65;;;4.05;;
66085;SDS011;52868;49.758;9.586;2023-03-01T03:10:07;11.57;;;4.88;;
66085;SDS011;52868;49.758;9.586;2023-03-01T03:12:38;13.88;;;4.60;;
66085;SDS011;52868;49.758;9.586;2023-03-01T03:15:05;9.77;;;4.53;;
66085;SDS011;52868;49.758;9.586;2023-03-01T03:17:34;14.63;;;4.70;;
66085;SDS011;52868;49.758;9.586;2023-03-01T03:20:02;12.02;;;5.22;;
66085;SDS011;52868;49.758;9.586;2023-03-01T03:22:35;15.48;;;5.45;;
66085;SDS011;52868;49.758;9.586;2023-03-01T03:25:02;11.63;;;4.75;;
66085;SDS011;52868;49.758;9.586;2023-03-01T03:27:28;14.35;;;4.95;;
66085;SDS011;52868;49.758;9.586;2023-03-01T03:29:53;12.10;;;4.45;;
66085;SDS011;52868;49.758;9.586;2023-03-01T03:32:19;13.48;;;4.97;;
66085;SDS011;52868;49.758;9.586;2023-03-01T03:34:44;12.10;;;4.72;;
66085;SDS011;52868;49.758;9.586;2023-03-01T03:37:10;13.32;;;4.50;;
66085;SDS011;52868;49.758;9.586;2023-03-01T03:39:55;13.45;;;4.95;;
66085;SDS011;52868;49.758;9.586;2023-03-01T03:42:21;10.50;;;4.20;;
66085;SDS011;52868;49.758;9.586;2023-03-01T03:44:47;14.27;;;4.40;;
66085;SDS011;52868;49.758;9.586;2023-03-01T03:47:13;15.63;;;5.38;;
66085;SDS011;52868;49.758;9.586;2023-03-01T03:49:38;13.73;;;5.57;;
66085;SDS011;52868;49.758;9.586;2023-03-01T03:52:04;12.10;;;5.05;;
66085;SDS011;52868;49.758;9.586;2023-03-01T03:54:29;14.30;;;5.05;;
66085;SDS011;52868;49.758;9.586;2023-03-01T03:56:55;9.27;;;4.53;;
66085;SDS011;52868;49.758;9.586;2023-03-01T03:59:21;15.95;;;4.93;;
66085;SDS011;52868;49.758;9.586;2023-03-01T04:01:46;11.32;;;5.03;;
66085;SDS011;52868;49.758;9.586;2023-03-01T04:04:12;14.73;;;5.38;;
66085;SDS011;52868;49.758;9.586;2023-03-01T04:06:38;13.63;;;4.85;;
66085;SDS011;52868;49.758;9.586;2023-03-01T04:09:03;17.73;;;5.10;;
66085;SDS011;52868;49.758;9.586;2023-03-01T04:11:29;12.85;;;5.13;;
66085;SDS011;52868;49.758;9.586;2023-03-01T04:13:57;15.88;;;4.97;;
66085;SDS011;52868;49.758;9.586;2023-03-01T04:16:24;19.37;;;5.07;;
66085;SDS011;52868;49.758;9.586;2023-03-01T04:18:50;20.42;;;6.20;;
66085;SDS011;52868;49.758;9.586;2023-03-01T04:21:17;17.75;;;6.53;;
66085;SDS011;52868;49.758;9.586;2023-03-01T04:23:45;13.55;;;4.80;;
66085;SDS011;52868;49.758;9.586;2023-03-01T04:26:11;12.07;;;5.10;;
66085;SDS011;52868;49.758;9.586;2023-03-01T04:28:38;12.68;;;4.60;;
66085;SDS011;52868;49.758;9.586;2023-03-01T04:31:06;15.77;;;5.00;;
66085;SDS011;52868;49.758;9.586;2023-03-01T04:33:41;11.10;;;4.63;;
66085;SDS011;52868;49.758;9.586;2023-03-01T04:36:07;17.98;;;6.28;;
66085;SDS011;52868;49.758;9.586;2023-03-01T04:38:34;13.75;;;5.57;;
66085;SDS011;52868;49.758;9.586;2023-03-01T04:41:02;17.90;;;6.07;;
66085;SDS011;52868;49.758;9.586;2023-03-01T04:43:29;18.90;;;5.72;;
66085;SDS011;52868;49.758;9.586;2023-03-01T04:45:54;13.25;;;4.47;;
66085;SDS011;52868;49.758;9.586;2023-03-01T04:48:30;13.38;;;5.38;;
66085;SDS011;52868;49.758;9.586;2023-03-01T04:50:56;18.80;;;5.43;;
66085;SDS011;52868;49.758;9.586;2023-03-01T04:53:23;17.25;;;6.22;;
66085;SDS011;52868;49.758;9.586;2023-03-01T04:55:49;11.82;;;4.30;;
66085;SDS011;52868;49.758;9.586;2023-03-01T04:58:15;12.50;;;4.78;;
66085;SDS011;52868;49.758;9.586;2023-03-01T05:00:41;13.18;;;5.50;;
66085;SDS011;52868;49.758;9.586;2023-03-01T05:03:08;11.05;;;3.95;;
66085;SDS011;52868;49.758;9.586;2023-03-01T05:05:37;10.77;;;4.90;;
66085;SDS011;52868;49.758;9.586;2023-03-01T05:08:06;14.73;;;5.40;;
66085;SDS011;52868;49.758;9.586;2023-03-01T05:10:33;18.08;;;5.82;;
66085;SDS011;52868;49.758;9.586;2023-03-01T05:13:00;16.02;;;6.30;;
66085;SDS011;52868;49.758;9.586;2023-03-01T05:15:27;14.65;;;5.65;;
66085;SDS011;52868;49.758;9.586;2023-03-01T05:17:55;27.50;;;7.97;;
66085;SDS011;52868;49.758;9.586;2023-03-01T05:20:23;19.63;;;7.73;;
66085;SDS011;52868;49.758;9.586;2023-03-01T05:22:50;16.17;;;6.28;;
66085;SDS011;52868;49.758;9.586;2023-03-01T05:25:16;10.60;;;4.60;;
66085;SDS011;52868;49.758;9.586;2023-03-01T05:27:42;16.10;;;5.53;;
66085;SDS011;52868;49.758;9.586;2023-03-01T05:30:08;12.88;;;4.97;;
66085;SDS011;52868;49.758;9.586;2023-03-01T05:32:45;20.33;;;5.22;;
66085;SDS011;52868;49.758;9.586;2023-03-01T05:35:13;17.90;;;5.93;;
66085;SDS011;52868;49.758;9.586;2023-03-01T05:37:41;17.35;;;5.80;;
66085;SDS011;52868;49.758;9.586;2023-03-01T05:40:10;14.35;;;5.57;;
66085;SDS011;52868;49.758;9.586;2023-03-01T05:42:41;15.52;;;5.38;;
66085;SDS011;52868;49.758;9.586;2023-03-01T05:47:57;14.68;;;5.72;;
66085;SDS011;52868;49.758;9.586;2023-03-01T05:50:25;16.20;;;6.20;;
66085;SDS011;52868;49.758;9.586;2023-03-01T05:53:14;20.20;;;5.50;;
66085;SDS011;52868;49.758;9.586;2023-03-01T05:55:40;13.32;;;6.30;;
66085;SDS011;52868;49.758;9.586;2023-03-01T05:58:10;13.65;;;5.72;;
66085;SDS011;52868;49.758;9.586;2023-03-01T06:00:41;12.70;;;5.38;;
66085;SDS011;52868;49.758;9.586;2023-03-01T06:03:09;16.10;;;6.45;;
66085;SDS011;52868;49.758;9.586;2023-03-01T06:05:36;18.40;;;6.45;;
66085;SDS011;52868;49.758;9.586;2023-03-01T06:08:02;17.40;;;6.13;;
66085;SDS011;52868;49.758;9.586;2023-03-01T06:10:28;13.48;;;5.45;;
66085;SDS011;52868;49.758;9.586;2023-03-01T06:12:57;11.80;;;4.80;;
66085;SDS011;52868;49.758;9.586;2023-03-01T06:15:23;20.33;;;5.90;;
66085;SDS011;52868;49.758;9.586;2023-03-01T06:17:49;12.05;;;4.85;;
66085;SDS011;52868;49.758;9.586;2023-03-01T06:20:16;10.30;;;4.78;;
66085;SDS011;52868;49.758;9.586;2023-03-01T06:22:46;19.48;;;5.07;;
66085;SDS011;52868;49.758;9.586;2023-03-01T06:25:13;15.07;;;5.88;;
66085;SDS011;52868;49.758;9.586;2023-03-01T06:27:41;13.40;;;4.72;;
66085;SDS011;52868;49.758;9.586;2023-03-01T06:30:07;17.65;;;5.43;;
66085;SDS011;52868;49.758;9.586;2023-03-01T06:32:35;11.40;;;4.70;;
66085;SDS011;52868;49.758;9.586;2023-03-01T06:35:02;18.02;;;5.68;;
66085;SDS011;52868;49.758;9.586;2023-03-01T06:37:28;19.25;;;5.75;;
66085;SDS011;52868;49.758;9.586;2023-03-01T06:39:54;15.18;;;6.07;;
66085;SDS011;52868;49.758;9.586;2023-03-01T06:42:19;16.65;;;6.85;;
66085;SDS011;52868;49.758;9.586;2023-03-01T06:44:45;25.05;;;7.70;;
66085;SDS011;52868;49.758;9.586;2023-03-01T06:47:11;20.17;;;7.05;;
66085;SDS011;52868;49.758;9.586;2023-03-01T06:49:36;18.25;;;6.20;;
66085;SDS011;52868;49.758;9.586;2023-03-01T06:52:02;16.25;;;6.38;;
66085;SDS011;52868;49.758;9.586;2023-03-01T06:54:28;22.08;;;7.18;;
66085;SDS011;52868;49.758;9.586;2023-03-01T06:56:53;15.05;;;6.13;;
66085;SDS011;52868;49.758;9.586;2023-03-01T06:59:19;18.95;;;6.90;;
66085;SDS011;52868;49.758;9.586;2023-03-01T07:01:45;20.08;;;6.80;;
66085;SDS011;52868;49.758;9.586;2023-03-01T07:04:12;18.08;;;6.97;;
66085;SDS011;52868;49.758;9.586;2023-03-01T07:06:38;21.02;;;7.25;;
66085;SDS011;52868;49.758;9.586;2023-03-01T07:09:04;16.13;;;6.65;;
66085;SDS011;52868;49.758;9.586;2023-03-01T07:11:30;24.48;;;7.47;;
66085;SDS011;52868;49.758;9.586;2023-03-01T07:13:55;13.27;;;6.20;;
66085;SDS011;52868;49.758;9.586;2023-03-01T07:16:21;18.33;;;6.65;;
66085;SDS011;52868;49.758;9.586;2023-03-01T07:18:47;13.35;;;5.93;;
66085;SDS011;52868;49.758;9.586;2023-03-01T07:21:13;15.02;;;6.15;;
66085;SDS011;52868;49.758;9.586;2023-03-01T07:23:40;19.38;;;6.57;;
66085;SDS011;52868;49.758;9.586;2023-03-01T07:26:06;19.23;;;6.13;;
66085;SDS011;52868;49.758;9.586;2023-03-01T07:28:32;13.18;;;6.00;;
66085;SDS011;52868;49.758;9.586;2023-03-01T07:31:03;12.95;;;5.18;;
66085;SDS011;52868;49.758;9.586;2023-03-01T07:33:29;12.65;;;5.28;;
66085;SDS011;52868;49.758;9.586;2023-03-01T07:35:58;14.05;;;6.15;;
66085;SDS011;52868;49.758;9.586;2023-03-01T07:38:26;17.58;;;6.75;;
66085;SDS011;52868;49.758;9.586;2023-03-01T07:40:52;39.03;;;11.30;;
66085;SDS011;52868;49.758;9.586;2023-03-01T07:43:18;27.58;;;9.48;;
66085;SDS011;52868;49.758;9.586;2023-03-01T07:45:44;21.38;;;9.02;;
66085;SDS011;52868;49.758;9.586;2023-03-01T07:48:09;24.90;;;9.48;;
66085;SDS011;52868;49.758;9.586;2023-03-01T07:50:35;31.40;;;10.68;;
66085;SDS011;52868;49.758;9.586;2023-03-01T07:53:01;29.55;;;8.65;;
66085;SDS011;52868;49.758;9.586;2023-03-01T07:55:27;18.80;;;7.20;;
66085;SDS011;52868;49.758;9.586;2023-03-01T07:57:53;19.38;;;7.32;;
66085;SDS011;52868;49.758;9.586;2023-03-01T08:00:21;17.50;;;7.53;;
66085;SDS011;52868;49.758;9.586;2023-03-01T08:02:47;25.30;;;8.70;;
66085;SDS011;52868;49.758;9.586;2023-03-01T08:05:13;24.92;;;8.63;;
66085;SDS011;52868;49.758;9.586;2023-03-01T08:07:38;17.63;;;6.90;;
66085;SDS011;52868;49.758;9.586;2023-03-01T08:10:04;17.15;;;6.80;;
66085;SDS011;52868;49.758;9.586;2023-03-01T08:12:30;20.00;;;6.95;;
66085;SDS011;52868;49.758;9.586;2023-03-01T08:14:56;18.20;;;6.70;;
66085;SDS011;52868;49.758;9.586;2023-03-01T08:17:22;22.75;;;7.00;;
66085;SDS011;52868;49.758;9.586;2023-03-01T08:19:48;19.98;;;7.40;;
66085;SDS011;52868;49.758;9.586;2023-03-01T08:22:13;18.02;;;6.05;;
66085;SDS011;52868;49.758;9.586;2023-03-01T08:24:39;16.73;;;6.28;;
66085;SDS011;52868;49.758;9.586;2023-03-01T08:27:04;19.00;;;7.32;;
66085;SDS011;52868;49.758;9.586;2023-03-01T08:29:31;13.52;;;5.88;;
66085;SDS011;52868;49.758;9.586;2023-03-01T08:31:57;12.48;;;5.78;;
66085;SDS011;52868;49.758;9.586;2023-03-01T08:34:23;17.90;;;5.78;;
66085;SDS011;52868;49.758;9.586;2023-03-01T08:36:49;13.85;;;5.43;;
66085;SDS011;52868;49.758;9.586;2023-03-01T08:39:17;14.50;;;5.43;;
66085;SDS011;52868;49.758;9.586;2023-03-01T08:41:44;14.40;;;5.75;;
66085;SDS011;52868;49.758;9.586;2023-03-01T08:44:12;16.05;;;5.65;;
66085;SDS011;52868;49.758;9.586;2023-03-01T08:46:39;16.00;;;6.50;;
66085;SDS011;52868;49.758;9.586;2023-03-01T08:49:07;14.68;;;6.07;;
66085;SDS011;52868;49.758;9.586;2023-03-01T08:51:34;17.83;;;6.15;;
66085;SDS011;52868;49.758;9.586;2023-03-01T08:54:20;15.32;;;6.38;;
66085;SDS011;52868;49.758;9.586;2023-03-01T08:56:47;18.67;;;6.05;;
66085;SDS011;52868;49.758;9.586;2023-03-01T08:59:13;14.80;;;4.90;;
66085;SDS011;52868;49.758;9.586;2023-03-01T09:01:40;16.02;;;5.68;;
66085;SDS011;52868;49.758;9.586;2023-03-01T09:04:09;18.77;;;5.70;;
66085;SDS011;52868;49.758;9.586;2023-03-01T09:06:39;32.88;;;8.38;;
66085;SDS011;52868;49.758;9.586;2023-03-01T09:09:05;45.75;;;9.85;;
66085;SDS011;52868;49.758;9.586;2023-03-01T09:11:35;21.08;;;8.00;;
66085;SDS011;52868;49.758;9.586;2023-03-01T09:14:04;20.65;;;6.78;;
66085;SDS011;52868;49.758;9.586;2023-03-01T09:16:30;14.15;;;5.63;;
66085;SDS011;52868;49.758;9.586;2023-03-01T09:19:00;14.70;;;6.50;;
66085;SDS011;52868;49.758;9.586;2023-03-01T09:21:26;17.45;;;6.97;;
66085;SDS011;52868;49.758;9.586;2023-03-01T09:23:51;19.08;;;6.78;;
66085;SDS011;52868;49.758;9.586;2023-03-01T09:26:18;17.95;;;6.60;;
66085;SDS011;52868;49.758;9.586;2023-03-01T09:28:47;18.23;;;6.90;;
66085;SDS011;52868;49.758;9.586;2023-03-01T09:31:14;14.98;;;5.88;;
66085;SDS011;52868;49.758;9.586;2023-03-01T09:33:41;19.33;;;7.68;;
66085;SDS011;52868;49.758;9.586;2023-03-01T09:36:10;19.20;;;6.53;;
66085;SDS011;52868;49.758;9.586;2023-03-01T09:38:39;15.35;;;6.03;;
66085;SDS011;52868;49.758;9.586;2023-03-01T09:46:56;16.52;;;6.93;;
66085;SDS011;52868;49.758;9.586;2023-03-01T09:49:23;15.55;;;5.85;;
66085;SDS011;52868;49.758;9.586;2023-03-01T09:51:59;20.63;;;6.70;;
66085;SDS011;52868;49.758;9.586;2023-03-01T09:54:32;12.93;;;5.28;;
66085;SDS011;52868;49.758;9.586;2023-03-01T10:04:52;18.52;;;5.93;;
66085;SDS011;52868;49.758;9.586;2023-03-01T10:10:14;13.48;;;5.30;;
66085;SDS011;52868;49.758;9.586;2023-03-01T10:12:48;14.82;;;5.80;;
66085;SDS011;52868;49.758;9.586;2023-03-01T10:15:19;15.43;;;7.38;;
66085;SDS011;52868;49.758;9.586;2023-03-01T10:18:19;13.02;;;5.95;;
66085;SDS011;52868;49.758;9.586;2023-03-01T10:20:58;19.35;;;6.50;;
66085;SDS011;52868;49.758;9.586;2023-03-01T10:23:27;13.88;;;5.50;;
66085;SDS011;52868;49.758;9.586;2023-03-01T10:29:02;19.63;;;6.65;;
66085;SDS011;52868;49.758;9.586;2023-03-01T10:31:43;13.25;;;5.88;;
66085;SDS011;52868;49.758;9.586;2023-03-01T10:34:35;17.42;;;5.65;;
66085;SDS011;52868;49.758;9.586;2023-03-01T10:37:01;13.75;;;5.57;;
66085;SDS011;52868;49.758;9.586;2023-03-01T10:39:53;18.52;;;6.63;;
66085;SDS011;52868;49.758;9.586;2023-03-01T10:44:57;14.57;;;6.32;;
66085;SDS011;52868;49.758;9.586;2023-03-01T10:47:24;14.75;;;4.85;;
66085;SDS011;52868;49.758;9.586;2023-03-01T10:52:24;14.95;;;6.18;;
66085;SDS011;52868;49.758;9.586;2023-03-01T10:54:58;14.32;;;5.85;;
66085;SDS011;52868;49.758;9.586;2023-03-01T10:57:35;17.98;;;6.65;;
66085;SDS011;52868;49.758;9.586;2023-03-01T11:00:24;16.48;;;5.70;;
66085;SDS011;52868;49.758;9.586;2023-03-01T11:02:51;17.20;;;7.05;;
66085;SDS011;52868;49.758;9.586;2023-03-01T11:05:23;21.83;;;7.78;;
66085;SDS011;52868;49.758;9.586;2023-03-01T11:10:18;22.90;;;7.65;;
66085;SDS011;52868;49.758;9.586;2023-03-01T11:12:45;20.25;;;6.22;;
66085;SDS011;52868;49.758;9.586;2023-03-01T11:15:25;11.98;;;5.78;;
66085;SDS011;52868;49.758;9.586;2023-03-01T11:17:53;13.55;;;5.35;;
66085;SDS011;52868;49.758;9.586;2023-03-01T11:23:03;19.02;;;6.45;;
66085;SDS011;52868;49.758;9.586;2023-03-01T11:25:37;20.65;;;5.50;;
66085;SDS011;52868;49.758;9.586;2023-03-01T11:28:16;29.35;;;8.25;;
66085;SDS011;52868;49.758;9.586;2023-03-01T11:30:50;13.20;;;5.05;;
66085;SDS011;52868;49.758;9.586;2023-03-01T11:36:26;13.88;;;6.00;;
66085;SDS011;52868;49.758;9.586;2023-03-01T11:38:56;14.32;;;5.82;;
66085;SDS011;52868;49.758;9.586;2023-03-01T11:41:28;20.73;;;5.78;;
66085;SDS011;52868;49.758;9.586;2023-03-01T11:44:01;15.70;;;4.88;;
66085;SDS011;52868;49.758;9.586;2023-03-01T11:51:58;22.10;;;9.00;;
66085;SDS011;52868;49.758;9.586;2023-03-01T11:54:27;22.75;;;8.63;;
66085;SDS011;52868;49.758;9.586;2023-03-01T11:57:25;16.30;;;6.20;;
66085;SDS011;52868;49.758;9.586;2023-03-01T12:22:13;29.75;;;12.38;;
66085;SDS011;52868;49.758;9.586;2023-03-01T12:25:18;24.33;;;10.50;;
66085;SDS011;52868;49.758;9.586;2023-03-01T12:31:13;30.60;;;7.30;;
66085;SDS011;52868;49.758;9.586;2023-03-01T12:51:04;13.63;;;5.70;;
66085;SDS011;52868;49.758;9.586;2023-03-01T12:53:29;14.80;;;5.45;;
66085;SDS011;52868;49.758;9.586;2023-03-01T13:07:10;17.75;;;6.60;;
66085;SDS011;52868;49.758;9.586;2023-03-01T13:17:52;15.88;;;6.05;;
66085;SDS011;52868;49.758;9.586;2023-03-01T13:20:20;19.13;;;6.75;;
66085;SDS011;52868;49.758;9.586;2023-03-01T13:23:13;13.70;;;6.15;;
66085;SDS011;52868;49.758;9.586;2023-03-01T13:28:37;15.38;;;5.95;;
66085;SDS011;52868;49.758;9.586;2023-03-01T13:31:54;14.25;;;5.18;;
66085;SDS011;52868;49.758;9.586;2023-03-01T13:33:56;17.30;;;6.10;;
66085;SDS011;52868;49.758;9.586;2023-03-01T13:39:02;11.05;;;5.00;;
66085;SDS011;52868;49.758;9.586;2023-03-01T13:41:50;13.18;;;5.22;;
66085;SDS011;52868;49.758;9.586;2023-03-01T13:46:50;12.00;;;4.72;;
66085;SDS011;52868;49.758;9.586;2023-03-01T13:49:22;14.27;;;5.15;;
66085;SDS011;52868;49.758;9.586;2023-03-01T13:51:51;14.30;;;5.70;;
66085;SDS011;52868;49.758;9.586;2023-03-01T13:54:22;16.65;;;5.90;;
66085;SDS011;52868;49.758;9.586;2023-03-01T13:57:55;16.98;;;6.18;;
66085;SDS011;52868;49.758;9.586;2023-03-01T14:00:55;16.23;;;5.50;;
66085;SDS011;52868;49.758;9.586;2023-03-01T14:05:29;13.98;;;5.75;;
66085;SDS011;52868;49.758;9.586;2023-03-01T14:07:56;12.98;;;5.68;;
66085;SDS011;52868;49.758;9.586;2023-03-01T14:10:21;14.40;;;5.68;;
66085;SDS011;52868;49.758;9.586;2023-03-01T14:15:35;17.40;;;5.80;;
66085;SDS011;52868;49.758;9.586;2023-03-01T14:18:14;14.60;;;5.47;;
66085;SDS011;52868;49.758;9.586;2023-03-01T14:20:46;13.48;;;5.88;;
66085;SDS011;52868;49.758;9.586;2023-03-01T14:23:18;14.82;;;6.32;;
66085;SDS011;52868;49.758;9.586;2023-03-01T14:25:52;10.60;;;4.93;;
66085;SDS011;52868;49.758;9.586;2023-03-01T14:28:29;13.98;;;5.47;;
66085;SDS011;52868;49.758;9.586;2023-03-01T14:30:59;15.48;;;5.68;;
66085;SDS011;52868;49.758;9.586;2023-03-01T14:38:28;11.55;;;4.75;;
66085;SDS011;52868;49.758;9.586;2023-03-01T14:40:57;14.07;;;5.50;;
66085;SDS011;52868;49.758;9.586;2023-03-01T14:43:26;16.15;;;6.30;;
66085;SDS011;52868;49.758;9.586;2023-03-01T14:45:53;15.02;;;5.55;;
66085;SDS011;52868;49.758;9.586;2023-03-01T14:48:19;13.00;;;5.40;;
66085;SDS011;52868;49.758;9.586;2023-03-01T14:50:49;15.10;;;5.72;;
66085;SDS011;52868;49.758;9.586;2023-03-01T14:55:51;13.15;;;4.97;;
66085;SDS011;52868;49.758;9.586;2023-03-01T14:58:20;13.50;;;5.32;;
66085;SDS011;52868;49.758;9.586;2023-03-01T15:03:48;14.40;;;4.70;;
66085;SDS011;52868;49.758;9.586;2023-03-01T15:06:17;13.05;;;4.63;;
66085;SDS011;52868;49.758;9.586;2023-03-01T15:08:46;14.48;;;4.65;;
66085;SDS011;52868;49.758;9.586;2023-03-01T15:13:43;11.00;;;4.90;;
66085;SDS011;52868;49.758;9.586;2023-03-01T15:16:12;14.43;;;5.47;;
66085;SDS011;52868;49.758;9.586;2023-03-01T15:18:44;9.40;;;4.93;;
66085;SDS011;52868;49.758;9.586;2023-03-01T15:21:15;14.77;;;5.85;;
66085;SDS011;52868;49.758;9.586;2023-03-01T15:23:47;13.40;;;5.40;;
66085;SDS011;52868;49.758;9.586;2023-03-01T15:26:25;18.25;;;5.50;;
66085;SDS011;52868;49.758;9.586;2023-03-01T15:31:32;17.58;;;5.03;;
66085;SDS011;52868;49.758;9.586;2023-03-01T15:34:23;11.85;;;4.38;;
66085;SDS011;52868;49.758;9.586;2023-03-01T15:36:49;20.58;;;5.30;;
66085;SDS011;52868;49.758;9.586;2023-03-01T15:42:10;20.15;;;5.35;;
66085;SDS011;52868;49.758;9.586;2023-03-01T15:45:11;14.20;;;5.55;;
66085;SDS011;52868;49.758;9.586;2023-03-01T15:47:38;12.57;;;4.63;;
66085;SDS011;52868;49.758;9.586;2023-03-01T15:50:11;11.47;;;5.03;;
66085;SDS011;52868;49.758;9.586;2023-03-01T15:52:44;10.13;;;4.47;;
66085;SDS011;52868;49.758;9.586;2023-03-01T15:57:43;13.13;;;4.97;;
66085;SDS011;52868;49.758;9.586;2023-03-01T16:00:09;14.10;;;5.18;;
66085;SDS011;52868;49.758;9.586;2023-03-01T16:02:38;13.57;;;5.03;;
66085;SDS011;52868;49.758;9.586;2023-03-01T16:05:18;9.02;;;5.10;;
66085;SDS011;52868;49.758;9.586;2023-03-01T16:07:48;15.63;;;5.43;;
66085;SDS011;52868;49.758;9.586;2023-03-01T16:10:14;12.80;;;4.50;;
66085;SDS011;52868;49.758;9.586;2023-03-01T16:12:40;10.85;;;4.63;;
66085;SDS011;52868;49.758;9.586;2023-03-01T16:15:12;12.40;;;4.85;;
66085;SDS011;52868;49.758;9.586;2023-03-01T16:17:41;13.63;;;5.10;;
66085;SDS011;52868;49.758;9.586;2023-03-01T16:20:07;15.10;;;5.47;;
66085;SDS011;52868;49.758;9.586;2023-03-01T16:22:33;15.90;;;5.63;;
66085;SDS011;52868;49.758;9.586;2023-03-01T16:24:59;9.82;;;4.15;;
66085;SDS011;52868;49.758;9.586;2023-03-01T16:27:25;13.05;;;4.55;;
66085;SDS011;52868;49.758;9.586;2023-03-01T16:29:50;19.88;;;5.78;;
66085;SDS011;52868;49.758;9.586;2023-03-01T16:32:16;9.25;;;4.32;;
66085;SDS011;52868;49.758;9.586;2023-03-01T16:34:42;17.17;;;5.53;;
66085;SDS011;52868;49.758;9.586;2023-03-01T16:37:07;12.07;;;4.78;;
66085;SDS011;52868;49.758;9.586;2023-03-01T16:39:33;12.27;;;4.35;;
66085;SDS011;52868;49.758;9.586;2023-03-01T16:41:59;15.27;;;5.70;;
66085;SDS011;52868;49.758;9.586;2023-03-01T16:44:26;23.80;;;7.00;;
66085;SDS011;52868;49.758;9.586;2023-03-01T16:46:51;36.92;;;12.00;;
66085;SDS011;52868;49.758;9.586;2023-03-01T16:49:17;23.33;;;7.40;;
66085;SDS011;52868;49.758;9.586;2023-03-01T16:51:43;17.98;;;5.15;;
66085;SDS011;52868;49.758;9.586;2023-03-01T16:54:09;36.20;;;11.07;;
66085;SDS011;52868;49.758;9.586;2023-03-01T16:56:35;30.98;;;9.73;;
66085;SDS011;52868;49.758;9.586;2023-03-01T16:59:03;25.88;;;7.55;;
66085;SDS011;52868;49.758;9.586;2023-03-01T17:01:30;16.02;;;6.15;;
66085;SDS011;52868;49.758;9.586;2023-03-01T17:04:02;25.67;;;7.63;;
66085;SDS011;52868;49.758;9.586;2023-03-01T17:06:28;26.27;;;8.40;;
66085;SDS011;52868;49.758;9.586;2023-03-01T17:08:54;30.10;;;9.27;;
66085;SDS011;52868;49.758;9.586;2023-03-01T17:11:21;19.85;;;6.95;;
66085;SDS011;52868;49.758;9.586;2023-03-01T17:13:47;37.10;;;11.25;;
66085;SDS011;52868;49.758;9.586;2023-03-01T17:16:14;43.63;;;11.13;;
66085;SDS011;52868;49.758;9.586;2023-03-01T17:18:41;20.35;;;6.40;;